Time;durP1;ratioP1;P1;durP2;ratioP2;P2;SDS_P1;SDS_P2;PMS_P1;PMS_P2;Temp;Humidity;BMP_temperature;BMP_pressure;BME280_temperature;BME280_humidity;BME280_pressure;Samples;Min_cycle;Max_cycle;Signal;HPM_P1;HPM_P2
2023/06/15 00:01:36;;;;;;;2.40;2.20;;;;;;;;;;5033718;28;20425;-72
2023/06/15 00:04:04;;;;;;;2.92;2.70;;;;;;;;;;5032772;28;20428;-71
2023/06/15 00:06:31;;;;;;;4.07;2.50;;;;;;;;;;5041645;28;20413;-71
2023/06/15 00:08:58;;;;;;;2.95;2.55;;;;;;;;;;5031104;23;20800;-69
2023/06/15 00:11:25;;;;;;;2.30;2.10;;;;;;;;;;4996161;28;20438;-71
2023/06/15 00:13:52;;;;;;;2.80;2.60;;;;;;;;;;4999716;28;20510;-70
2023/06/15 00:16:21;;;;;;;3.80;3.00;;;;;;;;;;5002112;28;20440;-70
2023/06/15 00:18:48;;;;;;;2.38;2.17;;;;;;;;;;5007356;28;20432;-71
2023/06/15 00:21:16;;;;;;;2.75;2.55;;;;;;;;;;5006193;28;20440;-70
2023/06/15 00:23:43;;;;;;;3.20;2.50;;;;;;;;;;5006557;28;20477;-70
2023/06/15 00:26:10;;;;;;;2.60;2.40;;;;;;;;;;5008502;28;20417;-70
2023/06/15 00:28:37;;;;;;;2.70;2.50;;;;;;;;;;5010391;28;20417;-71
2023/06/15 00:31:04;;;;;;;2.70;2.30;;;;;;;;;;5008301;28;20432;-71
2023/06/15 00:33:33;;;;;;;4.57;2.40;;;;;;;;;;5002822;28;20417;-71
2023/06/15 00:36:00;;;;;;;2.60;2.40;;;;;;;;;;5007041;28;20429;-70
2023/06/15 00:38:27;;;;;;;3.70;2.63;;;;;;;;;;5007274;28;20428;-72
2023/06/15 00:40:54;;;;;;;2.50;2.30;;;;;;;;;;5006930;28;20795;-71
2023/06/15 00:43:21;;;;;;;2.92;2.63;;;;;;;;;;5007312;28;20432;-71
2023/06/15 00:45:48;;;;;;;2.92;2.70;;;;;;;;;;5004483;28;20440;-69
2023/06/15 00:48:15;;;;;;;3.58;2.58;;;;;;;;;;5003164;28;20422;-72
2023/06/15 00:50:44;;;;;;;3.88;2.65;;;;;;;;;;5004273;28;20712;-71
2023/06/15 00:53:11;;;;;;;4.22;2.70;;;;;;;;;;5007478;28;20420;-71
2023/06/15 00:55:39;;;;;;;3.97;3.08;;;;;;;;;;5022543;28;20421;-69
2023/06/15 00:58:06;;;;;;;3.65;2.80;;;;;;;;;;5024799;28;20508;-69
2023/06/15 01:00:35;;;;;;;2.93;2.73;;;;;;;;;;5024784;28;20537;-71
2023/06/15 01:03:04;;;;;;;3.73;2.90;;;;;;;;;;5008308;28;20453;-70
2023/06/15 01:05:32;;;;;;;2.97;2.67;;;;;;;;;;5005702;28;20484;-71
2023/06/15 01:08:04;;;;;;;2.70;2.50;;;;;;;;;;4998089;28;20421;-71
2023/06/15 01:10:32;;;;;;;2.83;2.60;;;;;;;;;;5005839;28;20417;-71
2023/06/15 01:13:00;;;;;;;2.90;2.70;;;;;;;;;;4998996;28;20444;-69
2023/06/15 01:15:27;;;;;;;3.30;3.00;;;;;;;;;;5006473;28;20428;-69
2023/06/15 01:17:56;;;;;;;3.25;2.95;;;;;;;;;;5003252;28;20426;-70
2023/06/15 01:20:27;;;;;;;3.10;2.60;;;;;;;;;;5008311;28;20694;-70
2023/06/15 01:22:59;;;;;;;3.10;2.60;;;;;;;;;;5014778;28;20428;-70
2023/06/15 01:25:33;;;;;;;3.15;2.85;;;;;;;;;;5005522;28;20413;-72
2023/06/15 01:28:02;;;;;;;3.47;2.92;;;;;;;;;;5008337;28;20483;-69
2023/06/15 01:30:31;;;;;;;2.90;2.70;;;;;;;;;;5023395;28;20469;-69
2023/06/15 01:32:59;;;;;;;4.57;3.03;;;;;;;;;;5010592;28;20456;-70
2023/06/15 01:35:26;;;;;;;4.60;2.90;;;;;;;;;;5023874;28;20681;-69
2023/06/15 01:37:53;;;;;;;4.33;2.90;;;;;;;;;;5025955;28;20425;-71
2023/06/15 01:40:20;;;;;;;3.67;3.35;;;;;;;;;;5025483;28;20440;-70
2023/06/15 01:42:47;;;;;;;3.00;2.70;;;;;;;;;;5031553;28;20420;-69
2023/06/15 01:45:16;;;;;;;4.00;3.40;;;;;;;;;;5025887;28;20444;-69
2023/06/15 01:47:44;;;;;;;3.70;2.90;;;;;;;;;;5022096;28;20417;-70
2023/06/15 01:50:12;;;;;;;3.87;2.90;;;;;;;;;;5017704;28;20834;-70
2023/06/15 01:52:39;;;;;;;2.92;2.72;;;;;;;;;;5010181;28;20417;-69
2023/06/15 01:55:07;;;;;;;4.00;3.00;;;;;;;;;;5010929;28;20421;-71
2023/06/15 01:57:36;;;;;;;3.70;2.90;;;;;;;;;;5010776;28;20429;-69
2023/06/15 02:00:04;;;;;;;2.83;2.63;;;;;;;;;;5010715;28;20493;-70
2023/06/15 02:02:33;;;;;;;3.20;2.90;;;;;;;;;;5000116;28;20435;-69
2023/06/15 02:05:00;;;;;;;3.47;3.10;;;;;;;;;;5004988;28;20443;-70
2023/06/15 02:07:27;;;;;;;3.70;2.95;;;;;;;;;;5012584;28;20423;-70
2023/06/15 02:09:54;;;;;;;3.22;2.92;;;;;;;;;;5012680;28;20908;-69
2023/06/15 02:12:21;;;;;;;3.00;2.80;;;;;;;;;;5033281;28;20459;-69
2023/06/15 02:14:49;;;;;;;3.15;2.85;;;;;;;;;;5012023;28;20444;-69
2023/06/15 02:17:17;;;;;;;3.10;2.80;;;;;;;;;;5010469;28;20432;-69
2023/06/15 02:19:46;;;;;;;3.40;3.10;;;;;;;;;;5009104;28;20460;-69
2023/06/15 02:22:13;;;;;;;3.20;2.90;;;;;;;;;;5010755;28;20443;-68
2023/06/15 02:24:40;;;;;;;3.30;3.00;;;;;;;;;;5009291;28;20947;-68
2023/06/15 02:27:08;;;;;;;3.08;2.80;;;;;;;;;;5008177;28;20421;-69
2023/06/15 02:29:35;;;;;;;3.60;3.30;;;;;;;;;;5007334;28;20436;-70
2023/06/15 02:32:02;;;;;;;3.15;2.85;;;;;;;;;;5008299;28;20895;-71
2023/06/15 02:34:30;;;;;;;3.58;3.28;;;;;;;;;;5008284;28;20425;-71
2023/06/15 02:36:58;;;;;;;3.25;2.95;;;;;;;;;;5007268;28;20440;-71
2023/06/15 02:39:25;;;;;;;3.40;2.92;;;;;;;;;;5008259;28;20429;-69
2023/06/15 02:41:53;;;;;;;3.10;2.83;;;;;;;;;;5008854;28;20432;-69
2023/06/15 02:44:21;;;;;;;3.13;2.90;;;;;;;;;;4997479;28;20474;-69
2023/06/15 02:46:48;;;;;;;4.07;3.20;;;;;;;;;;5008777;28;20934;-69
2023/06/15 02:49:18;;;;;;;3.47;3.17;;;;;;;;;;5005199;28;20943;-71
2023/06/15 02:51:45;;;;;;;3.40;3.10;;;;;;;;;;5029548;28;20436;-69
2023/06/15 02:54:14;;;;;;;3.90;3.00;;;;;;;;;;5013984;28;20428;-69
2023/06/15 02:56:42;;;;;;;3.30;3.00;;;;;;;;;;5008903;28;20443;-70
2023/06/15 02:59:09;;;;;;;3.15;2.63;;;;;;;;;;5007656;28;20964;-70
2023/06/15 03:01:38;;;;;;;2.90;2.70;;;;;;;;;;5007745;28;20436;-69
2023/06/15 03:04:09;;;;;;;3.30;3.00;;;;;;;;;;5007657;28;20437;-69
2023/06/15 03:06:37;;;;;;;3.30;3.00;;;;;;;;;;5005664;28;20468;-68
2023/06/15 03:09:04;;;;;;;3.20;2.90;;;;;;;;;;5003402;28;21212;-69
2023/06/15 03:11:32;;;;;;;3.80;3.25;;;;;;;;;;5001024;28;20436;-69
2023/06/15 03:13:59;;;;;;;2.90;2.60;;;;;;;;;;4996602;28;20849;-70
2023/06/15 03:16:26;;;;;;;6.28;2.90;;;;;;;;;;4997582;28;20457;-69
2023/06/15 03:18:54;;;;;;;3.50;3.15;;;;;;;;;;4999327;28;21001;-71
2023/06/15 03:21:22;;;;;;;3.42;3.10;;;;;;;;;;5003151;28;20461;-71
2023/06/15 03:23:50;;;;;;;3.63;3.17;;;;;;;;;;5006098;28;20443;-70
2023/06/15 03:26:17;;;;;;;3.30;2.90;;;;;;;;;;5005222;28;20440;-69
2023/06/15 03:28:46;;;;;;;3.40;3.10;;;;;;;;;;5008052;28;20478;-68
2023/06/15 03:31:16;;;;;;;3.38;3.08;;;;;;;;;;5003813;28;20430;-69
2023/06/15 03:33:44;;;;;;;3.33;3.03;;;;;;;;;;5027559;28;20915;-70
2023/06/15 03:36:13;;;;;;;5.00;2.90;;;;;;;;;;5000039;28;20520;-68
2023/06/15 03:38:40;;;;;;;3.60;2.80;;;;;;;;;;5007543;28;20490;-69
2023/06/15 03:41:07;;;;;;;3.40;3.10;;;;;;;;;;5022025;28;20478;-70
2023/06/15 03:43:37;;;;;;;4.35;3.25;;;;;;;;;;5008128;28;20417;-70
2023/06/15 03:46:05;;;;;;;3.10;2.90;;;;;;;;;;5008101;28;20425;-69
2023/06/15 03:48:32;;;;;;;3.30;3.00;;;;;;;;;;5007271;28;20429;-69
2023/06/15 03:50:59;;;;;;;3.10;2.90;;;;;;;;;;5007352;28;20437;-69
2023/06/15 03:53:26;;;;;;;3.33;3.00;;;;;;;;;;5008058;28;20886;-70
2023/06/15 03:55:53;;;;;;;4.13;3.13;;;;;;;;;;4996810;28;20428;-69
2023/06/15 03:58:20;;;;;;;3.70;3.40;;;;;;;;;;5008569;28;20421;-69
2023/06/15 04:00:48;;;;;;;3.00;2.80;;;;;;;;;;5004033;28;20913;-71
2023/06/15 04:03:16;;;;;;;3.70;3.40;;;;;;;;;;5006923;28;20439;-68
2023/06/15 04:05:43;;;;;;;3.90;3.50;;;;;;;;;;5006281;28;20489;-68
2023/06/15 04:08:10;;;;;;;3.97;3.28;;;;;;;;;;5016426;28;20433;-69
2023/06/15 04:10:37;;;;;;;4.90;3.60;;;;;;;;;;5029552;28;20792;-68
2023/06/15 04:13:05;;;;;;;3.10;2.80;;;;;;;;;;5030671;28;20397;-69
2023/06/15 04:15:32;;;;;;;3.20;3.00;;;;;;;;;;5015397;28;20423;-69
2023/06/15 04:18:00;;;;;;;3.97;3.35;;;;;;;;;;5002001;28;20714;-69
2023/06/15 04:20:31;;;;;;;3.90;3.40;;;;;;;;;;5004089;28;20771;-70
2023/06/15 04:22:58;;;;;;;3.95;3.60;;;;;;;;;;5003975;28;20514;-70
2023/06/15 04:25:27;;;;;;;3.80;3.30;;;;;;;;;;4997995;28;20492;-70
2023/06/15 04:27:54;;;;;;;3.97;3.40;;;;;;;;;;5002794;28;20446;-70
2023/06/15 04:30:24;;;;;;;4.45;3.60;;;;;;;;;;5006303;28;20649;-69
2023/06/15 04:32:57;;;;;;;5.00;3.80;;;;;;;;;;5002769;28;20437;-70
2023/06/15 04:35:24;;;;;;;3.90;3.50;;;;;;;;;;4999112;28;20533;-70
2023/06/15 04:37:53;;;;;;;4.68;3.90;;;;;;;;;;4999468;28;20438;-69
2023/06/15 04:40:21;;;;;;;5.20;4.00;;;;;;;;;;5005019;28;20468;-70
2023/06/15 04:42:48;;;;;;;5.03;4.40;;;;;;;;;;5004771;28;20592;-70
2023/06/15 04:45:15;;;;;;;4.40;4.10;;;;;;;;;;5001958;28;20459;-68
2023/06/15 04:47:42;;;;;;;5.65;4.13;;;;;;;;;;5001614;28;20521;-70
2023/06/15 04:50:13;;;;;;;4.80;4.30;;;;;;;;;;4995487;28;20444;-69
2023/06/15 04:52:40;;;;;;;4.57;4.18;;;;;;;;;;5003156;28;20437;-67
2023/06/15 04:55:10;;;;;;;5.00;4.20;;;;;;;;;;5005004;28;20433;-68
2023/06/15 04:57:37;;;;;;;4.65;4.00;;;;;;;;;;5001134;28;20456;-69
2023/06/15 05:00:06;;;;;;;5.73;4.10;;;;;;;;;;5002335;28;20523;-66
2023/06/15 05:02:33;;;;;;;4.90;4.50;;;;;;;;;;5002726;28;20440;-66
2023/06/15 05:05:00;;;;;;;5.18;4.13;;;;;;;;;;5006166;28;20471;-67
2023/06/15 05:07:27;;;;;;;4.10;3.70;;;;;;;;;;5004403;28;20436;-67
2023/06/15 05:09:54;;;;;;;4.50;4.10;;;;;;;;;;5001770;28;20429;-66
2023/06/15 05:12:23;;;;;;;4.63;4.22;;;;;;;;;;5000593;28;20433;-67
2023/06/15 05:14:50;;;;;;;5.40;4.50;;;;;;;;;;5003582;28;20441;-65
2023/06/15 05:17:17;;;;;;;4.80;4.10;;;;;;;;;;5003858;28;20432;-68
2023/06/15 05:19:44;;;;;;;6.20;4.18;;;;;;;;;;5013891;28;20993;-66
2023/06/15 05:22:11;;;;;;;4.47;4.07;;;;;;;;;;5005700;28;20516;-65
2023/06/15 05:24:38;;;;;;;5.85;4.40;;;;;;;;;;5001932;28;20448;-68
2023/06/15 05:27:06;;;;;;;4.20;3.80;;;;;;;;;;5003124;28;20432;-68
2023/06/15 05:29:36;;;;;;;4.13;3.72;;;;;;;;;;5004537;28;20437;-67
2023/06/15 05:32:03;;;;;;;5.20;3.40;;;;;;;;;;5002926;28;20449;-66
2023/06/15 05:34:30;;;;;;;5.78;3.70;;;;;;;;;;5002566;28;20428;-68
2023/06/15 05:36:57;;;;;;;4.60;3.90;;;;;;;;;;5002118;28;20823;-68
2023/06/15 05:39:25;;;;;;;5.07;3.80;;;;;;;;;;5005633;28;20440;-68
2023/06/15 05:41:52;;;;;;;4.10;3.70;;;;;;;;;;5006381;28;20437;-67
2023/06/15 05:44:19;;;;;;;6.28;3.85;;;;;;;;;;5006506;28;20780;-66
2023/06/15 05:46:48;;;;;;;3.85;3.40;;;;;;;;;;5000856;28;20439;-66
2023/06/15 05:49:15;;;;;;;5.00;3.95;;;;;;;;;;5002354;28;20413;-66
2023/06/15 05:51:42;;;;;;;3.80;3.50;;;;;;;;;;5004700;28;20458;-66
2023/06/15 05:54:09;;;;;;;4.80;3.60;;;;;;;;;;5004421;28;20440;-67
2023/06/15 05:56:37;;;;;;;4.15;3.75;;;;;;;;;;5012286;28;20511;-68
2023/06/15 05:59:05;;;;;;;4.85;4.43;;;;;;;;;;5007860;28;21065;-65
2023/06/15 06:01:32;;;;;;;4.50;4.10;;;;;;;;;;5002656;28;20439;-67
2023/06/15 06:04:00;;;;;;;4.57;4.10;;;;;;;;;;5006877;28;20894;-67
2023/06/15 06:06:27;;;;;;;4.20;3.80;;;;;;;;;;5008137;28;20806;-69
2023/06/15 06:08:55;;;;;;;4.60;4.10;;;;;;;;;;5005712;28;20421;-64
2023/06/15 06:11:22;;;;;;;4.75;4.10;;;;;;;;;;5005444;28;20432;-66
2023/06/15 06:13:49;;;;;;;4.70;4.20;;;;;;;;;;5002950;28;20439;-67
2023/06/15 06:16:16;;;;;;;4.70;3.55;;;;;;;;;;5006300;28;20437;-66
2023/06/15 06:18:43;;;;;;;3.90;3.60;;;;;;;;;;5006605;28;20432;-66
2023/06/15 06:21:11;;;;;;;4.00;3.60;;;;;;;;;;5006131;28;20433;-66
2023/06/15 06:23:39;;;;;;;4.95;3.50;;;;;;;;;;5026357;28;20432;-66
2023/06/15 06:26:06;;;;;;;4.50;3.28;;;;;;;;;;5030475;28;20397;-66
2023/06/15 06:28:33;;;;;;;4.25;3.55;;;;;;;;;;5026527;28;20435;-68
2023/06/15 06:31:00;;;;;;;5.13;3.30;;;;;;;;;;5006681;28;20440;-65
2023/06/15 06:33:27;;;;;;;4.57;3.88;;;;;;;;;;5006035;28;20437;-64
2023/06/15 06:35:54;;;;;;;4.18;3.50;;;;;;;;;;5011044;28;20436;-65
2023/06/15 06:38:22;;;;;;;6.68;3.80;;;;;;;;;;5011747;28;20453;-65
2023/06/15 06:40:50;;;;;;;4.63;3.28;;;;;;;;;;5012020;28;20436;-66
2023/06/15 06:43:18;;;;;;;3.70;3.40;;;;;;;;;;5011252;28;20945;-65
2023/06/15 06:45:45;;;;;;;4.68;3.78;;;;;;;;;;5009407;28;20432;-64
2023/06/15 06:48:12;;;;;;;4.13;3.60;;;;;;;;;;5011044;28;20440;-66
2023/06/15 06:50:39;;;;;;;4.22;3.70;;;;;;;;;;5013401;28;20437;-65
2023/06/15 06:53:06;;;;;;;3.80;3.47;;;;;;;;;;5025152;28;20956;-65
2023/06/15 06:55:35;;;;;;;4.68;3.10;;;;;;;;;;5031802;28;20440;-64
2023/06/15 06:58:02;;;;;;;5.43;3.95;;;;;;;;;;5020962;28;20447;-70
2023/06/15 07:00:30;;;;;;;6.25;3.60;;;;;;;;;;5019180;28;20440;-71
2023/06/15 07:03:00;;;;;;;3.85;3.10;;;;;;;;;;5016004;28;20444;-70
2023/06/15 07:05:27;;;;;;;4.53;4.03;;;;;;;;;;5009074;28;20437;-70
2023/06/15 07:07:54;;;;;;;4.70;3.33;;;;;;;;;;5009768;28;20432;-71
2023/06/15 07:10:21;;;;;;;4.50;3.40;;;;;;;;;;5013545;28;20429;-72
2023/06/15 07:12:50;;;;;;;4.55;3.70;;;;;;;;;;5011402;28;20433;-71
2023/06/15 07:15:17;;;;;;;4.28;3.63;;;;;;;;;;5006625;28;20440;-70
2023/06/15 07:17:44;;;;;;;5.05;3.65;;;;;;;;;;5007244;28;20421;-70
2023/06/15 07:20:11;;;;;;;6.43;3.50;;;;;;;;;;5006945;28;20523;-71
2023/06/15 07:22:38;;;;;;;5.38;3.30;;;;;;;;;;5008847;28;20435;-71
2023/06/15 07:25:06;;;;;;;3.72;3.38;;;;;;;;;;5022888;28;20428;-70
2023/06/15 07:27:33;;;;;;;5.30;3.20;;;;;;;;;;5065546;28;20890;-69
2023/06/15 07:30:01;;;;;;;3.40;3.10;;;;;;;;;;5007214;28;20443;-70
2023/06/15 07:32:28;;;;;;;6.32;3.55;;;;;;;;;;5003972;28;20517;-67
2023/06/15 07:34:55;;;;;;;6.50;3.20;;;;;;;;;;5009574;28;20432;-69
2023/06/15 07:37:22;;;;;;;4.67;3.20;;;;;;;;;;5005963;28;20436;-71
2023/06/15 07:39:50;;;;;;;5.90;3.30;;;;;;;;;;4999150;28;20437;-68
2023/06/15 07:42:17;;;;;;;5.10;3.10;;;;;;;;;;5031802;28;20440;-69
2023/06/15 07:44:44;;;;;;;5.75;3.50;;;;;;;;;;5006589;28;20451;-69
2023/06/15 07:47:12;;;;;;;4.30;2.90;;;;;;;;;;5004356;28;20432;-70
2023/06/15 07:49:39;;;;;;;4.40;3.00;;;;;;;;;;5007950;28;20465;-70
2023/06/15 07:52:07;;;;;;;3.40;3.10;;;;;;;;;;5010039;28;20429;-70
2023/06/15 07:54:34;;;;;;;3.70;3.20;;;;;;;;;;4997990;28;20803;-70
2023/06/15 07:57:01;;;;;;;4.63;3.40;;;;;;;;;;5007818;28;20432;-70
2023/06/15 07:59:28;;;;;;;3.75;2.95;;;;;;;;;;5003414;28;20433;-69
2023/06/15 08:01:55;;;;;;;3.50;3.20;;;;;;;;;;5008179;28;20949;-69
2023/06/15 08:04:24;;;;;;;3.85;2.90;;;;;;;;;;5003861;28;20911;-70
2023/06/15 08:06:51;;;;;;;5.65;3.53;;;;;;;;;;5015444;28;20462;-70
2023/06/15 08:09:18;;;;;;;5.15;3.20;;;;;;;;;;5012082;28;20446;-70
2023/06/15 08:11:45;;;;;;;4.45;2.78;;;;;;;;;;5013745;28;20432;-71
2023/06/15 08:14:12;;;;;;;3.53;3.00;;;;;;;;;;5009236;28;20441;-69
2023/06/15 08:16:39;;;;;;;6.07;3.10;;;;;;;;;;5004482;28;20525;-71
2023/06/15 08:19:07;;;;;;;3.55;3.05;;;;;;;;;;5001175;28;20521;-69
2023/06/15 08:21:35;;;;;;;4.13;2.90;;;;;;;;;;5005972;28;20442;-69
2023/06/15 08:24:02;;;;;;;3.70;3.20;;;;;;;;;;4999286;28;20433;-68
2023/06/15 08:26:30;;;;;;;3.05;2.72;;;;;;;;;;5004840;28;20440;-71
2023/06/15 08:28:57;;;;;;;3.15;2.72;;;;;;;;;;5007250;28;20425;-68
2023/06/15 08:31:24;;;;;;;3.05;2.70;;;;;;;;;;4999310;28;20720;-69
2023/06/15 08:33:51;;;;;;;3.47;2.90;;;;;;;;;;4997946;28;20431;-71
2023/06/15 08:36:18;;;;;;;3.60;3.30;;;;;;;;;;5020414;28;20420;-70
2023/06/15 08:38:47;;;;;;;3.47;2.80;;;;;;;;;;5039432;23;20429;-68
2023/06/15 08:41:14;;;;;;;3.15;2.85;;;;;;;;;;5003677;28;20436;-68
2023/06/15 08:43:43;;;;;;;3.70;2.83;;;;;;;;;;4996916;28;20431;-68
2023/06/15 08:46:13;;;;;;;4.43;2.70;;;;;;;;;;4997046;28;22555;-67
2023/06/15 08:48:40;;;;;;;3.67;2.80;;;;;;;;;;4992049;28;20549;-67
2023/06/15 08:51:09;;;;;;;5.00;3.30;;;;;;;;;;4975339;28;20442;-68
2023/06/15 08:53:37;;;;;;;3.80;3.20;;;;;;;;;;4974437;28;20424;-69
2023/06/15 08:56:08;;;;;;;3.15;2.70;;;;;;;;;;4982656;28;20461;-71
2023/06/15 08:58:35;;;;;;;3.60;2.72;;;;;;;;;;4979191;28;20434;-69
2023/06/15 09:01:03;;;;;;;3.40;2.85;;;;;;;;;;4972917;28;20436;-67
2023/06/15 09:03:31;;;;;;;3.30;2.90;;;;;;;;;;4980845;28;20716;-67
2023/06/15 09:05:58;;;;;;;3.05;2.50;;;;;;;;;;5005765;28;20911;-67
2023/06/15 09:08:25;;;;;;;3.67;3.00;;;;;;;;;;4973565;28;20428;-66
2023/06/15 09:10:52;;;;;;;5.07;3.10;;;;;;;;;;4977565;28;20440;-67
2023/06/15 09:13:21;;;;;;;3.83;2.90;;;;;;;;;;4976734;28;20436;-71
2023/06/15 09:15:59;;;;;;;2.90;2.70;;;;;;;;;;4978959;28;20434;-73
2023/06/15 09:18:26;;;;;;;4.60;3.50;;;;;;;;;;4966641;28;21457;-73
2023/06/15 09:20:59;;;;;;;3.30;2.90;;;;;;;;;;4980166;28;20479;-73
2023/06/15 09:23:26;;;;;;;3.95;3.00;;;;;;;;;;4976125;28;21038;-73
2023/06/15 09:25:54;;;;;;;2.70;2.50;;;;;;;;;;4976254;28;21023;-74
2023/06/15 09:28:23;;;;;;;3.80;2.78;;;;;;;;;;4976649;28;20529;-73
2023/06/15 09:30:53;;;;;;;3.13;2.40;;;;;;;;;;4976225;28;20438;-75
2023/06/15 09:33:21;;;;;;;3.72;2.60;;;;;;;;;;4988855;28;20932;-76
2023/06/15 09:35:58;;;;;;;3.47;2.87;;;;;;;;;;4988222;28;20454;-73
2023/06/15 09:38:25;;;;;;;3.13;2.80;;;;;;;;;;4986130;28;20434;-74
2023/06/15 09:40:52;;;;;;;4.78;2.85;;;;;;;;;;4977251;28;20442;-74
2023/06/15 09:43:19;;;;;;;6.65;4.90;;;;;;;;;;4978844;28;20438;-74
2023/06/15 09:45:51;;;;;;;5.93;3.67;;;;;;;;;;4978363;28;20438;-73
2023/06/15 09:48:18;;;;;;;5.13;3.47;;;;;;;;;;4977607;28;20420;-74
2023/06/15 09:50:50;;;;;;;4.90;4.03;;;;;;;;;;4992723;28;20442;-74
2023/06/15 09:53:18;;;;;;;4.10;3.30;;;;;;;;;;4979284;28;20460;-73
2023/06/15 09:55:47;;;;;;;3.38;2.95;;;;;;;;;;4976313;28;20453;-74
2023/06/15 09:58:14;;;;;;;5.30;3.90;;;;;;;;;;4983185;28;20445;-74
2023/06/15 10:00:41;;;;;;;4.70;3.30;;;;;;;;;;4977447;28;20709;-77
2023/06/15 10:03:12;;;;;;;5.30;3.60;;;;;;;;;;4980912;28;20448;-77
2023/06/15 10:05:43;;;;;;;3.92;2.92;;;;;;;;;;4970781;28;21938;-77
2023/06/15 10:08:12;;;;;;;3.38;2.88;;;;;;;;;;4972815;28;20445;-76
2023/06/15 10:10:40;;;;;;;3.55;3.00;;;;;;;;;;4982317;28;20436;-77
2023/06/15 10:13:10;;;;;;;4.22;3.08;;;;;;;;;;4981969;28;20438;-77
2023/06/15 10:15:37;;;;;;;2.90;2.70;;;;;;;;;;4976568;28;21049;-77
2023/06/15 10:18:05;;;;;;;4.78;3.25;;;;;;;;;;4978739;28;20978;-78
2023/06/15 10:20:34;;;;;;;3.67;2.70;;;;;;;;;;4969231;28;20439;-76
2023/06/15 10:23:04;;;;;;;3.20;2.50;;;;;;;;;;4986035;28;20501;-76
2023/06/15 10:25:31;;;;;;;4.70;2.85;;;;;;;;;;4979780;28;20472;-77
2023/06/15 10:27:59;;;;;;;2.80;2.50;;;;;;;;;;4979074;28;20877;-78
2023/06/15 10:30:31;;;;;;;3.08;2.65;;;;;;;;;;4979342;28;21012;-77
2023/06/15 10:33:03;;;;;;;3.72;2.70;;;;;;;;;;4978587;28;20490;-78
2023/06/15 10:35:34;;;;;;;4.40;2.90;;;;;;;;;;4977537;28;20513;-77
2023/06/15 10:38:08;;;;;;;2.78;2.58;;;;;;;;;;4976863;28;20447;-76
2023/06/15 10:40:39;;;;;;;2.97;2.60;;;;;;;;;;4980263;28;20442;-71
2023/06/15 10:43:06;;;;;;;3.85;2.78;;;;;;;;;;4978537;28;20439;-78
2023/06/15 10:45:34;;;;;;;3.90;2.78;;;;;;;;;;4976448;28;20442;-81
2023/06/15 10:48:02;;;;;;;2.90;2.70;;;;;;;;;;4986778;28;20430;-78
2023/06/15 10:50:39;;;;;;;3.40;2.70;;;;;;;;;;4978154;28;20438;-78
2023/06/15 10:53:07;;;;;;;3.70;3.10;;;;;;;;;;4974158;28;20441;-78
2023/06/15 10:55:34;;;;;;;3.30;3.00;;;;;;;;;;4977105;28;20436;-79
2023/06/15 10:58:15;;;;;;;3.10;2.80;;;;;;;;;;4985743;28;20438;-78
2023/06/15 11:00:42;;;;;;;3.30;3.00;;;;;;;;;;4980462;28;20438;-78
2023/06/15 11:03:24;;;;;;;4.32;3.10;;;;;;;;;;4981364;28;20436;-79
2023/06/15 11:06:01;;;;;;;3.90;2.95;;;;;;;;;;4981883;28;20438;-78
2023/06/15 11:08:30;;;;;;;3.47;3.15;;;;;;;;;;4983984;28;20431;-78
2023/06/15 11:10:58;;;;;;;3.35;2.88;;;;;;;;;;4977530;28;20443;-78
2023/06/15 11:13:25;;;;;;;4.00;3.17;;;;;;;;;;4976739;28;20432;-78
2023/06/15 11:16:07;;;;;;;3.50;3.20;;;;;;;;;;4983863;28;20527;-78
2023/06/15 11:18:34;;;;;;;2.85;2.65;;;;;;;;;;4978815;28;20438;-78
2023/06/15 11:21:02;;;;;;;3.15;2.85;;;;;;;;;;4978700;28;20466;-78
2023/06/15 11:23:35;;;;;;;3.58;3.00;;;;;;;;;;4984037;28;20439;-77
2023/06/15 11:26:03;;;;;;;2.80;2.50;;;;;;;;;;4981540;28;20438;-79
2023/06/15 11:28:34;;;;;;;3.30;2.92;;;;;;;;;;4981038;28;20442;-77
2023/06/15 11:31:02;;;;;;;3.70;2.80;;;;;;;;;;4971424;28;20446;-66
2023/06/15 11:33:29;;;;;;;3.30;2.70;;;;;;;;;;4979825;28;20458;-77
2023/06/15 11:35:57;;;;;;;5.70;2.90;;;;;;;;;;4985833;28;20947;-77
2023/06/15 11:38:26;;;;;;;3.03;2.72;;;;;;;;;;4978661;28;20526;-78
2023/06/15 11:40:59;;;;;;;3.40;2.80;;;;;;;;;;4984488;28;20716;-76
2023/06/15 11:43:26;;;;;;;2.72;2.50;;;;;;;;;;4979273;28;20444;-76
2023/06/15 11:45:53;;;;;;;2.83;2.60;;;;;;;;;;4984187;28;20467;-74
2023/06/15 11:48:21;;;;;;;3.22;2.60;;;;;;;;;;4980495;28;20452;-77
2023/06/15 11:50:48;;;;;;;2.50;2.30;;;;;;;;;;4983236;28;20434;-77
2023/06/15 11:53:16;;;;;;;3.60;2.20;;;;;;;;;;4978505;28;20438;-77
2023/06/15 11:55:43;;;;;;;3.60;2.00;;;;;;;;;;4984322;28;20517;-79
2023/06/15 11:58:12;;;;;;;1.90;1.70;;;;;;;;;;4981495;28;20803;-79
2023/06/15 12:00:40;;;;;;;2.28;2.08;;;;;;;;;;4978770;28;20430;-79
2023/06/15 12:03:10;;;;;;;2.13;1.92;;;;;;;;;;4980907;28;20447;-80
2023/06/15 12:05:38;;;;;;;3.10;1.70;;;;;;;;;;4979063;28;20951;-80
2023/06/15 12:08:06;;;;;;;1.80;1.70;;;;;;;;;;4977712;28;20708;-79
2023/06/15 12:10:34;;;;;;;2.20;1.70;;;;;;;;;;4983124;28;20441;-77
2023/06/15 12:13:01;;;;;;;5.60;2.20;;;;;;;;;;4984402;28;20438;-78
2023/06/15 12:15:30;;;;;;;2.00;1.90;;;;;;;;;;4976071;28;20728;-80
2023/06/15 12:17:59;;;;;;;2.75;2.00;;;;;;;;;;4979786;28;20811;-75
2023/06/15 12:20:29;;;;;;;3.30;2.13;;;;;;;;;;4978770;28;20442;-79
2023/06/15 12:22:58;;;;;;;3.22;2.10;;;;;;;;;;4978960;28;20525;-79
2023/06/15 12:25:42;;;;;;;3.50;2.50;;;;;;;;;;4990980;28;20434;-77
2023/06/15 12:28:18;;;;;;;6.65;2.63;;;;;;;;;;4988747;28;20443;-78
2023/06/15 12:30:48;;;;;;;4.03;2.60;;;;;;;;;;4984940;28;20448;-78
2023/06/15 12:33:25;;;;;;;2.10;1.90;;;;;;;;;;4982215;28;20844;-65
2023/06/15 12:35:54;;;;;;;2.95;1.90;;;;;;;;;;4976788;28;20855;-70
2023/06/15 12:38:21;;;;;;;2.47;1.80;;;;;;;;;;4998926;28;20483;-69
2023/06/15 12:40:49;;;;;;;2.85;1.70;;;;;;;;;;4990568;28;21122;-73
2023/06/15 12:43:17;;;;;;;3.08;1.90;;;;;;;;;;4981874;28;20444;-73
2023/06/15 12:45:44;;;;;;;1.90;1.80;;;;;;;;;;4966419;28;20460;-73
2023/06/15 12:48:13;;;;;;;2.30;1.80;;;;;;;;;;4975555;28;21015;-73
2023/06/15 12:50:40;;;;;;;3.42;2.30;;;;;;;;;;4977249;28;20434;-73
2023/06/15 12:53:07;;;;;;;2.53;2.15;;;;;;;;;;4969810;28;20439;-73
2023/06/15 12:55:35;;;;;;;4.30;2.30;;;;;;;;;;4977884;28;20800;-71
2023/06/15 12:58:02;;;;;;;2.30;2.10;;;;;;;;;;4980038;28;20442;-69
2023/06/15 13:00:29;;;;;;;3.10;2.20;;;;;;;;;;4982869;28;20449;-68
2023/06/15 13:02:57;;;;;;;3.75;2.00;;;;;;;;;;4979986;28;20857;-71
2023/06/15 13:05:25;;;;;;;4.20;2.45;;;;;;;;;;4976780;28;20430;-71
2023/06/15 13:07:52;;;;;;;6.65;2.90;;;;;;;;;;4981792;28;20430;-71
2023/06/15 13:10:20;;;;;;;7.78;4.22;;;;;;;;;;4972243;28;20495;-71
2023/06/15 13:12:47;;;;;;;4.60;4.20;;;;;;;;;;4979473;28;20449;-65
2023/06/15 13:15:14;;;;;;;4.10;3.70;;;;;;;;;;4971987;28;20463;-66
2023/06/15 13:17:41;;;;;;;4.97;3.80;;;;;;;;;;4973383;28;20443;-66
2023/06/15 13:20:09;;;;;;;3.70;3.40;;;;;;;;;;4985196;28;20434;-67
2023/06/15 13:22:37;;;;;;;3.67;3.17;;;;;;;;;;4968938;28;20455;-68
2023/06/15 13:25:06;;;;;;;3.60;3.30;;;;;;;;;;4985454;28;20885;-68
2023/06/15 13:27:37;;;;;;;4.00;3.70;;;;;;;;;;4977551;28;20434;-68
2023/06/15 13:30:05;;;;;;;3.63;3.30;;;;;;;;;;4975659;28;20467;-68
2023/06/15 13:32:32;;;;;;;3.70;3.20;;;;;;;;;;4997245;28;20842;-67
2023/06/15 13:34:59;;;;;;;3.60;3.30;;;;;;;;;;4977320;28;20430;-77
2023/06/15 13:37:26;;;;;;;4.05;3.85;;;;;;;;;;4994423;28;20926;-67
2023/06/15 13:39:55;;;;;;;4.20;3.80;;;;;;;;;;4980328;28;20446;-67
2023/06/15 13:42:22;;;;;;;3.70;3.50;;;;;;;;;;4983210;28;20755;-66
2023/06/15 13:44:49;;;;;;;4.60;4.20;;;;;;;;;;4984177;28;20437;-71
2023/06/15 13:47:19;;;;;;;5.10;4.60;;;;;;;;;;4986591;28;20792;-71
2023/06/15 13:49:46;;;;;;;6.18;4.80;;;;;;;;;;4985117;28;20465;-72
2023/06/15 13:52:13;;;;;;;4.75;4.35;;;;;;;;;;4987811;28;20422;-72
2023/06/15 13:54:41;;;;;;;5.30;4.70;;;;;;;;;;4977819;28;20436;-71
2023/06/15 13:57:10;;;;;;;4.60;4.20;;;;;;;;;;4977702;28;20440;-72
2023/06/15 13:59:37;;;;;;;3.90;3.60;;;;;;;;;;4987226;28;20537;-72
2023/06/15 14:02:04;;;;;;;4.40;3.40;;;;;;;;;;4984609;28;20436;-72
2023/06/15 14:04:32;;;;;;;4.00;3.70;;;;;;;;;;4980818;28;20432;-72
2023/06/15 14:06:59;;;;;;;4.10;3.80;;;;;;;;;;4981920;28;20497;-72
2023/06/15 14:09:27;;;;;;;4.40;3.80;;;;;;;;;;4983404;28;20430;-74
2023/06/15 14:11:57;;;;;;;4.90;4.50;;;;;;;;;;4992684;28;20904;-72
2023/06/15 14:14:26;;;;;;;5.20;4.80;;;;;;;;;;4991178;28;20441;-72
2023/06/15 14:16:53;;;;;;;5.20;4.80;;;;;;;;;;4985438;28;20767;-71
2023/06/15 14:19:21;;;;;;;4.72;4.30;;;;;;;;;;4991155;28;20434;-71
2023/06/15 14:21:48;;;;;;;4.70;4.30;;;;;;;;;;4985583;28;20441;-72
2023/06/15 14:24:15;;;;;;;5.00;4.60;;;;;;;;;;4985350;28;20441;-72
2023/06/15 14:26:42;;;;;;;4.75;4.35;;;;;;;;;;4983771;28;20422;-72
2023/06/15 14:29:12;;;;;;;4.30;4.00;;;;;;;;;;4982922;28;20444;-72
2023/06/15 14:31:45;;;;;;;7.30;6.80;;;;;;;;;;4989944;28;20447;-73
2023/06/15 14:34:13;;;;;;;4.05;3.75;;;;;;;;;;4984946;28;20522;-73
2023/06/15 14:36:40;;;;;;;4.20;3.90;;;;;;;;;;4987602;28;20592;-73
2023/06/15 14:39:07;;;;;;;4.25;3.95;;;;;;;;;;4986739;28;20438;-73
2023/06/15 14:41:34;;;;;;;4.63;3.72;;;;;;;;;;4972921;28;20428;-73
2023/06/15 14:44:01;;;;;;;4.25;3.85;;;;;;;;;;4988039;28;20920;-73
2023/06/15 14:46:28;;;;;;;4.10;3.70;;;;;;;;;;4978076;28;20929;-73
2023/06/15 14:48:56;;;;;;;3.70;3.50;;;;;;;;;;4985137;28;20424;-73